createdAt,value
2022-08-07T00:00:18.705Z,2.70
2022-08-07T00:03:04.338Z,2.20
2022-08-07T00:05:32.547Z,2.10
2022-08-07T00:08:04.067Z,1.95
2022-08-07T00:10:31.710Z,1.95
2022-08-07T00:13:02.026Z,1.85
2022-08-07T00:15:38.633Z,1.98
2022-08-07T00:20:49.616Z,2.00
2022-08-07T00:23:17.232Z,2.33
2022-08-07T00:25:45.987Z,2.20
2022-08-07T00:28:25.310Z,2.38
2022-08-07T00:31:04.274Z,2.25
2022-08-07T00:33:32.791Z,2.08
2022-08-07T00:36:00.371Z,2.10
2022-08-07T00:38:31.233Z,2.65
2022-08-07T00:40:59.736Z,2.65
2022-08-07T00:44:01.151Z,2.00
2022-08-07T00:46:14.722Z,2.35
2022-08-07T00:48:41.968Z,2.47
2022-08-07T00:51:10.500Z,2.45
2022-08-07T00:53:50.550Z,2.70
2022-08-07T00:56:23.050Z,2.25
2022-08-07T00:58:58.547Z,2.33
2022-08-07T01:01:25.808Z,2.25
2022-08-07T01:03:57.127Z,2.15
2022-08-07T01:06:29.321Z,2.30
2022-08-07T01:09:00.743Z,2.40
2022-08-07T01:12:23.371Z,2.15
2022-08-07T01:14:28.900Z,2.53
2022-08-07T01:16:57.717Z,3.83
2022-08-07T01:19:25.260Z,2.60
2022-08-07T01:21:53.504Z,2.65
2022-08-07T01:24:22.862Z,1.95
2022-08-07T01:26:51.908Z,2.47
2022-08-07T01:29:22.449Z,2.50
2022-08-07T01:31:51.408Z,3.00
2022-08-07T01:34:19.093Z,2.65
2022-08-07T01:36:52.785Z,2.22
2022-08-07T01:39:41.322Z,2.92
2022-08-07T01:42:39.543Z,2.35
2022-08-07T01:45:05.018Z,2.40
2022-08-07T01:48:29.674Z,1.95
2022-08-07T01:50:28.919Z,2.65
2022-08-07T01:52:58.519Z,2.20
2022-08-07T01:55:34.476Z,2.80
2022-08-07T01:58:29.343Z,2.50
2022-08-07T02:01:09.713Z,2.60
2022-08-07T02:03:48.630Z,2.63
2022-08-07T02:06:30.898Z,2.20
2022-08-07T02:09:03.609Z,2.42
2022-08-07T02:12:04.306Z,2.40
2022-08-07T02:14:36.325Z,2.33
2022-08-07T02:17:10.994Z,2.47
2022-08-07T02:20:04.452Z,2.90
2022-08-07T02:22:30.528Z,3.05
2022-08-07T02:24:58.858Z,2.20
2022-08-07T02:27:34.204Z,2.70
2022-08-07T02:30:07.444Z,2.60
2022-08-07T02:32:39.486Z,3.10
2022-08-07T02:36:28.206Z,2.55
2022-08-07T02:38:14.687Z,2.95
2022-08-07T02:40:44.484Z,2.67
2022-08-07T02:43:15.504Z,2.92
2022-08-07T02:45:59.236Z,2.28
2022-08-07T02:48:28.854Z,2.33
2022-08-07T02:50:57.195Z,2.35
2022-08-07T02:53:38.266Z,2.78
2022-08-07T02:56:17.327Z,2.50
2022-08-07T02:58:47.323Z,2.17
2022-08-07T03:01:19.002Z,2.45
2022-08-07T03:04:03.221Z,2.65
2022-08-07T03:06:34.940Z,3.00
2022-08-07T03:09:03.761Z,3.40
2022-08-07T03:11:38.556Z,2.90
2022-08-07T03:14:07.033Z,3.22
2022-08-07T03:16:38.355Z,2.60
2022-08-07T03:19:06.044Z,3.08
2022-08-07T03:21:33.472Z,3.60
2022-08-07T03:24:20.524Z,2.97
2022-08-07T03:26:58.871Z,2.63
2022-08-07T03:29:51.046Z,2.70
2022-08-07T03:32:22.917Z,2.65
2022-08-07T03:35:17.070Z,2.65
2022-08-07T03:37:46.495Z,3.58
2022-08-07T03:40:22.404Z,2.47
2022-08-07T03:42:51.639Z,2.80
2022-08-07T03:45:30.015Z,2.83
2022-08-07T03:47:58.684Z,2.42
2022-08-07T03:50:28.736Z,2.63
2022-08-07T03:52:59.077Z,2.50
2022-08-07T03:55:53.045Z,2.40
2022-08-07T03:59:07.381Z,2.33
2022-08-07T04:01:04.985Z,2.38
2022-08-07T04:03:49.615Z,1.88
2022-08-07T04:06:36.135Z,1.60
2022-08-07T04:09:05.679Z,1.60
2022-08-07T04:12:23.366Z,1.98
2022-08-07T04:14:38.086Z,1.40
2022-08-07T04:17:21.281Z,1.77
2022-08-07T04:19:52.308Z,1.30
2022-08-07T04:22:27.458Z,1.83
2022-08-07T04:24:58.089Z,1.48
2022-08-07T04:27:26.523Z,1.40
2022-08-07T04:30:01.215Z,1.27
2022-08-07T04:32:34.239Z,1.23
2022-08-07T04:35:07.234Z,0.93
2022-08-07T04:37:52.752Z,1.00
2022-08-07T04:40:26.588Z,1.30
2022-08-07T04:43:02.189Z,1.00
2022-08-07T04:45:57.718Z,0.90
2022-08-07T04:48:35.435Z,1.08
2022-08-07T04:51:16.257Z,1.00
2022-08-07T04:54:08.114Z,1.05
2022-08-07T04:58:15.618Z,0.90
2022-08-07T05:00:12.245Z,2.75
2022-08-07T05:02:45.742Z,1.25
2022-08-07T05:05:52.790Z,0.90
2022-08-07T05:09:00.169Z,1.17
2022-08-07T05:11:57.019Z,1.20
2022-08-07T05:14:55.527Z,1.15
2022-08-07T05:17:50.453Z,0.98
2022-08-07T05:20:09.867Z,0.90
2022-08-07T05:22:39.173Z,0.77
2022-08-07T05:25:11.577Z,1.08
2022-08-07T05:28:02.615Z,1.25
2022-08-07T05:30:43.331Z,1.35
2022-08-07T05:33:16.168Z,1.23
2022-08-07T05:35:45.913Z,0.80
2022-08-07T05:39:00.867Z,0.80
2022-08-07T05:41:11.944Z,1.00
2022-08-07T05:44:07.577Z,1.00
2022-08-07T05:46:31.709Z,1.25
2022-08-07T05:49:00.306Z,0.80
2022-08-07T05:51:31.604Z,1.02
2022-08-07T05:56:51.484Z,1.08
2022-08-07T05:59:21.046Z,0.90
2022-08-07T06:01:49.532Z,0.88
2022-08-07T06:04:19.811Z,0.73
2022-08-07T06:06:47.641Z,1.05
2022-08-07T06:10:04.745Z,1.13
2022-08-07T06:12:11.324Z,1.42
2022-08-07T06:14:49.572Z,0.95
2022-08-07T06:17:19.278Z,1.27
2022-08-07T06:20:03.459Z,1.00
2022-08-07T06:22:38.357Z,1.42
2022-08-07T06:25:06.256Z,1.00
2022-08-07T06:28:00.566Z,2.08
2022-08-07T06:30:35.789Z,1.40
2022-08-07T06:33:09.777Z,0.85
2022-08-07T06:35:47.853Z,0.93
2022-08-07T06:38:30.387Z,0.80
2022-08-07T06:40:59.828Z,0.90
2022-08-07T06:43:39.383Z,0.95
2022-08-07T06:46:11.453Z,0.82
2022-08-07T06:48:41.811Z,1.38
2022-08-07T06:51:31.237Z,0.80
2022-08-07T06:55:29.492Z,0.82
2022-08-07T06:56:51.476Z,1.50
2022-08-07T07:00:12.030Z,1.10
2022-08-07T07:02:53.643Z,1.00
2022-08-07T07:05:08.907Z,0.70
2022-08-07T07:07:59.090Z,0.80
2022-08-07T07:10:33.413Z,1.20
2022-08-07T07:13:07.886Z,1.40
2022-08-07T07:15:44.455Z,1.13
2022-08-07T07:18:33.139Z,0.80
2022-08-07T07:21:13.530Z,1.20
2022-08-07T07:24:08.277Z,1.02
2022-08-07T07:26:37.926Z,0.95
2022-08-07T07:29:40.434Z,0.90
2022-08-07T07:32:03.057Z,0.98
2022-08-07T07:34:33.231Z,0.98
2022-08-07T07:37:14.472Z,1.13
2022-08-07T07:39:54.882Z,0.85
2022-08-07T07:42:32.559Z,1.23
2022-08-07T07:45:02.523Z,1.10
2022-08-07T07:47:30.387Z,0.95
2022-08-07T07:50:33.398Z,0.80
2022-08-07T07:53:13.678Z,0.80
2022-08-07T07:56:00.983Z,1.10
2022-08-07T07:58:36.885Z,0.77
2022-08-07T08:02:01.775Z,1.10
2022-08-07T08:04:09.487Z,0.70
2022-08-07T08:06:40.696Z,0.95
2022-08-07T08:09:22.774Z,1.05
2022-08-07T08:12:01.763Z,0.80
2022-08-07T08:14:31.827Z,1.15
2022-08-07T08:18:36.853Z,0.70
2022-08-07T08:20:19.556Z,1.08
2022-08-07T08:23:01.946Z,0.90
2022-08-07T08:25:52.089Z,0.73
2022-08-07T08:28:38.417Z,0.93
2022-08-07T08:31:15.826Z,1.08
2022-08-07T08:33:49.802Z,0.80
2022-08-07T08:36:31.972Z,1.40
2022-08-07T08:39:03.591Z,0.93
2022-08-07T08:41:57.311Z,1.17
2022-08-07T08:44:44.940Z,1.00
2022-08-07T08:47:27.510Z,0.90
2022-08-07T08:50:39.476Z,0.73
2022-08-07T08:53:22.560Z,0.70
2022-08-07T08:55:53.441Z,0.90
2022-08-07T08:58:35.069Z,1.05
2022-08-07T09:01:15.360Z,0.82
2022-08-07T09:04:01.840Z,0.70
2022-08-07T09:06:47.611Z,0.95
2022-08-07T09:09:56.490Z,1.10
2022-08-07T09:12:53.541Z,0.98
2022-08-07T09:16:25.844Z,0.80
2022-08-07T09:18:58.839Z,0.90
2022-08-07T09:21:58.254Z,0.80
2022-08-07T09:24:53.891Z,0.80
2022-08-07T09:27:19.714Z,0.80
2022-08-07T09:30:04.270Z,0.70
2022-08-07T09:32:47.302Z,0.93
2022-08-07T09:36:03.237Z,1.00
2022-08-07T09:39:11.538Z,0.90
2022-08-07T09:42:05.633Z,0.85
2022-08-07T09:47:19.957Z,1.00
2022-08-07T09:48:03.971Z,1.10
2022-08-07T09:50:54.398Z,1.10
2022-08-07T09:53:24.607Z,0.80
2022-08-07T09:56:37.527Z,0.82
2022-08-07T09:59:28.132Z,1.17
2022-08-07T10:02:24.232Z,0.90
2022-08-07T10:05:15.146Z,1.17
2022-08-07T10:08:01.166Z,1.58
2022-08-07T10:11:00.374Z,1.00
2022-08-07T10:14:00.355Z,1.05
2022-08-07T10:17:14.273Z,1.00
2022-08-07T10:19:56.404Z,1.02
2022-08-07T10:23:02.963Z,1.13
2022-08-07T10:25:51.824Z,1.00
2022-08-07T10:28:50.282Z,1.30
2022-08-07T10:31:41.996Z,1.67
2022-08-07T10:34:27.027Z,1.23
2022-08-07T10:37:26.468Z,1.30
2022-08-07T10:40:21.136Z,1.13
2022-08-07T10:43:06.702Z,1.33
2022-08-07T10:45:44.113Z,1.10
2022-08-07T10:48:34.923Z,1.30
2022-08-07T10:51:07.449Z,1.58
2022-08-07T10:53:50.066Z,1.42
2022-08-07T10:56:46.561Z,1.30
2022-08-07T10:59:37.342Z,1.35
2022-08-07T11:02:34.103Z,1.48
2022-08-07T11:05:14.823Z,1.15
2022-08-07T11:08:23.008Z,1.45
2022-08-07T11:11:20.251Z,1.50
2022-08-07T11:14:45.537Z,1.65
2022-08-07T11:16:54.765Z,1.75
2022-08-07T11:19:36.004Z,1.60
2022-08-07T11:22:11.273Z,1.95
2022-08-07T11:24:57.149Z,1.90
2022-08-07T11:28:02.888Z,2.08
2022-08-07T11:30:55.769Z,1.80
2022-08-07T11:33:59.242Z,2.20
2022-08-07T11:36:57.214Z,2.05
2022-08-07T11:39:23.983Z,2.67
2022-08-07T11:42:06.548Z,1.90
2022-08-07T11:44:52.470Z,2.38
2022-08-07T11:47:59.545Z,1.90
2022-08-07T11:50:58.348Z,1.48
2022-08-07T11:54:01.382Z,1.77
2022-08-07T11:56:29.021Z,2.20
2022-08-07T12:00:07.543Z,2.00
2022-08-07T12:02:52.483Z,1.85
2022-08-07T12:05:48.870Z,2.30
2022-08-07T12:08:34.797Z,2.00
2022-08-07T12:11:22.554Z,2.25
2022-08-07T12:14:05.441Z,2.00
2022-08-07T12:16:45.405Z,2.13
2022-08-07T12:20:02.730Z,2.28
2022-08-07T12:22:56.340Z,2.13
2022-08-07T12:26:06.139Z,2.20
2022-08-07T12:28:59.094Z,2.35
2022-08-07T12:32:03.904Z,2.20
2022-08-07T12:34:36.089Z,2.42
2022-08-07T12:37:08.162Z,2.60
2022-08-07T12:39:50.922Z,2.70
2022-08-07T12:42:27.989Z,2.13
2022-08-07T12:44:59.029Z,2.10
2022-08-07T12:47:37.747Z,2.03
2022-08-07T12:50:34.480Z,2.33
